Time;durP1;ratioP1;P1;durP2;ratioP2;P2;SDS_P1;SDS_P2;PMS_P1;PMS_P2;Temp;Humidity;BMP_temperature;BMP_pressure;BME280_temperature;BME280_humidity;BME280_pressure;Samples;Min_cycle;Max_cycle;Signal;HPM_P1;HPM_P2
2021/06/11 00:01:55;;;;;;;;;19.00;17.75;;;;;;;;3557702;39;113914;-72
2021/06/11 00:04:22;;;;;;;;;16.00;15.25;;;;;;;;3559714;39;112425;-72
2021/06/11 00:06:51;;;;;;;;;18.75;15.50;;;;;;;;3558772;39;113545;-72
2021/06/11 00:09:18;;;;;;;;;16.25;14.25;;;;;;;;3558853;39;113858;-72
2021/06/11 00:11:44;;;;;;;;;16.25;16.00;;;;;;;;3559091;39;111838;-72
2021/06/11 00:14:11;;;;;;;;;16.50;16.50;;;;;;;;3558788;39;113257;-72
2021/06/11 00:16:37;;;;;;;;;19.75;16.00;;;;;;;;3561880;39;112370;-72
2021/06/11 00:19:03;;;;;;;;;16.50;15.00;;;;;;;;3558314;39;113255;-72
2021/06/11 00:21:29;;;;;;;;;17.50;13.50;;;;;;;;3559448;39;114409;-72
2021/06/11 00:23:55;;;;;;;;;16.00;16.00;;;;;;;;3558389;39;111906;-72
2021/06/11 00:26:22;;;;;;;;;17.00;16.00;;;;;;;;3559536;39;113196;-72
2021/06/11 00:28:49;;;;;;;;;16.00;15.75;;;;;;;;3557626;39;115700;-74
2021/06/11 00:31:15;;;;;;;;;16.00;16.00;;;;;;;;3558243;39;111957;-73
2021/06/11 00:33:41;;;;;;;;;15.00;13.00;;;;;;;;3558863;39;113346;-72
2021/06/11 00:36:10;;;;;;;;;19.00;16.00;;;;;;;;3561684;39;113997;-72
2021/06/11 00:38:36;;;;;;;;;13.00;12.75;;;;;;;;3556713;39;112531;-72
2021/06/11 00:41:02;;;;;;;;;18.25;16.00;;;;;;;;3559414;39;114264;-72
2021/06/11 00:43:30;;;;;;;;;16.50;15.50;;;;;;;;3558198;39;111939;-72
2021/06/11 00:45:56;;;;;;;;;19.50;18.00;;;;;;;;3559854;39;113172;-72
2021/06/11 00:48:22;;;;;;;;;17.00;16.00;;;;;;;;3557942;39;113669;-72
2021/06/11 00:50:49;;;;;;;;;17.75;16.00;;;;;;;;3559263;39;111763;-71
2021/06/11 00:53:16;;;;;;;;;15.25;15.25;;;;;;;;3558961;39;113642;-72
2021/06/11 00:55:43;;;;;;;;;15.50;15.25;;;;;;;;3558410;39;114319;-72
2021/06/11 00:58:10;;;;;;;;;16.00;15.50;;;;;;;;3561913;39;112134;-72
2021/06/11 01:00:38;;;;;;;;;17.75;16.50;;;;;;;;3558021;39;113879;-72
2021/06/11 01:03:04;;;;;;;;;16.25;16.25;;;;;;;;3559565;39;111901;-72
2021/06/11 01:05:30;;;;;;;;;17.75;17.75;;;;;;;;3558192;39;113176;-72
2021/06/11 01:07:57;;;;;;;;;17.50;16.50;;;;;;;;3559171;39;113996;-73
2021/06/11 01:10:26;;;;;;;;;16.75;15.00;;;;;;;;3554691;39;112477;-72
2021/06/11 01:12:54;;;;;;;;;14.00;14.00;;;;;;;;3559351;39;113752;-72
2021/06/11 01:15:21;;;;;;;;;20.00;17.75;;;;;;;;3558006;39;114381;-72
2021/06/11 01:17:49;;;;;;;;;17.50;15.75;;;;;;;;3558904;39;112050;-73
2021/06/11 01:20:16;;;;;;;;;19.00;19.00;;;;;;;;3561068;39;113270;-72
2021/06/11 01:22:54;;;;;;;;;15.75;15.75;;;;;;;;3558694;39;111870;-72
2021/06/11 01:25:26;;;;;;;;;16.75;16.00;;;;;;;;3558473;39;113226;-74
2021/06/11 01:27:54;;;;;;;;;16.50;15.00;;;;;;;;3558795;39;113899;-73
2021/06/11 01:30:21;;;;;;;;;18.00;16.50;;;;;;;;3558345;39;112617;-73
2021/06/11 01:32:48;;;;;;;;;20.25;17.00;;;;;;;;3558941;39;113460;-72
2021/06/11 01:35:16;;;;;;;;;16.00;15.75;;;;;;;;3558218;39;113845;-73
2021/06/11 01:37:43;;;;;;;;;17.75;15.00;;;;;;;;3558618;39;111952;-73
2021/06/11 01:40:11;;;;;;;;;18.75;16.25;;;;;;;;3558885;39;113203;-73
2021/06/11 01:42:39;;;;;;;;;18.50;13.25;;;;;;;;3560323;39;114096;-72
2021/06/11 01:45:09;;;;;;;;;14.00;14.00;;;;;;;;3559204;39;113217;-72
2021/06/11 01:47:37;;;;;;;;;16.00;14.75;;;;;;;;3558403;39;113807;-72
2021/06/11 01:50:03;;;;;;;;;17.50;15.50;;;;;;;;3558476;39;111789;-73
2021/06/11 01:52:30;;;;;;;;;11.75;11.75;;;;;;;;3559613;39;114392;-73
2021/06/11 01:54:56;;;;;;;;;17.50;17.25;;;;;;;;3557510;39;113977;-70
2021/06/11 01:57:22;;;;;;;;;18.75;16.75;;;;;;;;3559102;39;113097;-71
2021/06/11 01:59:50;;;;;;;;;16.75;14.50;;;;;;;;3557399;39;112736;-74
2021/06/11 02:02:18;;;;;;;;;16.75;14.75;;;;;;;;3558370;39;113955;-72
2021/06/11 02:04:45;;;;;;;;;16.25;15.50;;;;;;;;3561251;39;113177;-71
2021/06/11 02:07:11;;;;;;;;;15.25;14.75;;;;;;;;3557846;39;114250;-73
2021/06/11 02:09:39;;;;;;;;;16.50;13.25;;;;;;;;3559265;39;111926;-72
2021/06/11 02:12:06;;;;;;;;;17.50;15.50;;;;;;;;3559133;39;113396;-71
2021/06/11 02:14:32;;;;;;;;;18.25;17.75;;;;;;;;3557167;39;114034;-72
2021/06/11 02:16:59;;;;;;;;;18.00;15.00;;;;;;;;3559429;39;111843;-73
2021/06/11 02:19:27;;;;;;;;;15.25;14.25;;;;;;;;3557421;39;114848;-73
2021/06/11 02:21:54;;;;;;;;;16.75;16.75;;;;;;;;3558730;39;114463;-73
2021/06/11 02:24:20;;;;;;;;;17.50;15.25;;;;;;;;3560418;39;111911;-73
2021/06/11 02:26:47;;;;;;;;;16.25;14.75;;;;;;;;3558019;39;113628;-73
2021/06/11 02:29:13;;;;;;;;;18.75;17.00;;;;;;;;3558167;39;112243;-73
2021/06/11 02:31:40;;;;;;;;;19.75;17.75;;;;;;;;3558062;39;113239;-73
2021/06/11 02:34:07;;;;;;;;;15.00;15.00;;;;;;;;3558177;39;113972;-73
2021/06/11 02:36:34;;;;;;;;;12.75;10.75;;;;;;;;3557618;39;112320;-73
2021/06/11 02:39:01;;;;;;;;;18.25;15.25;;;;;;;;3559011;39;113749;-72
2021/06/11 02:41:29;;;;;;;;;15.25;15.25;;;;;;;;3556783;39;113998;-73
2021/06/11 02:43:55;;;;;;;;;17.75;16.75;;;;;;;;3559074;39;111981;-72
2021/06/11 02:46:23;;;;;;;;;19.25;15.00;;;;;;;;3556095;39;112329;-72
2021/06/11 02:48:51;;;;;;;;;17.75;16.00;;;;;;;;3558610;39;111780;-72
2021/06/11 02:51:20;;;;;;;;;17.00;15.25;;;;;;;;3558021;39;113537;-72
2021/06/11 02:53:48;;;;;;;;;18.50;16.00;;;;;;;;3559347;39;113799;-73
2021/06/11 02:56:18;;;;;;;;;16.75;15.75;;;;;;;;3559220;39;112296;-72
2021/06/11 02:58:48;;;;;;;;;18.50;15.75;;;;;;;;3559497;39;113682;-72
2021/06/11 03:01:15;;;;;;;;;20.00;16.00;;;;;;;;3558801;39;113759;-72
2021/06/11 03:03:41;;;;;;;;;16.75;15.75;;;;;;;;3559324;39;114390;-72
2021/06/11 03:06:08;;;;;;;;;17.75;16.50;;;;;;;;3559825;39;113500;-74
2021/06/11 03:08:38;;;;;;;;;17.75;16.00;;;;;;;;3560908;39;113939;-73
2021/06/11 03:11:06;;;;;;;;;16.25;15.50;;;;;;;;3560177;39;113450;-74
2021/06/11 03:13:33;;;;;;;;;16.50;16.50;;;;;;;;3558119;39;113863;-74
2021/06/11 03:16:00;;;;;;;;;21.00;18.50;;;;;;;;3560110;39;111979;-73
2021/06/11 03:18:29;;;;;;;;;16.25;16.25;;;;;;;;3558547;39;113373;-73
2021/06/11 03:20:57;;;;;;;;;19.25;15.50;;;;;;;;3559614;39;114095;-73
2021/06/11 03:23:26;;;;;;;;;18.25;16.50;;;;;;;;3558504;39;111981;-73
2021/06/11 03:25:55;;;;;;;;;14.25;14.25;;;;;;;;3560060;39;113360;-72
2021/06/11 03:28:25;;;;;;;;;21.00;17.75;;;;;;;;3558073;39;114108;-72
2021/06/11 03:30:53;;;;;;;;;18.00;17.50;;;;;;;;3562551;39;111899;-72
2021/06/11 03:33:20;;;;;;;;;19.25;18.25;;;;;;;;3558359;39;113652;-72
2021/06/11 03:35:50;;;;;;;;;16.00;15.75;;;;;;;;3559424;39;111806;-72
2021/06/11 03:38:17;;;;;;;;;20.00;19.25;;;;;;;;3559133;39;113259;-73
2021/06/11 03:40:44;;;;;;;;;18.00;17.00;;;;;;;;3558728;39;114483;-73
2021/06/11 03:43:11;;;;;;;;;22.75;21.00;;;;;;;;3559570;39;112094;-73
2021/06/11 03:45:39;;;;;;;;;17.75;16.50;;;;;;;;3558826;39;113153;-73
2021/06/11 03:48:06;;;;;;;;;23.00;19.50;;;;;;;;3559335;39;113740;-73
2021/06/11 03:50:33;;;;;;;;;16.75;15.75;;;;;;;;3558354;39;112451;-73
2021/06/11 03:53:01;;;;;;;;;17.00;16.00;;;;;;;;3562323;39;113414;-73
2021/06/11 03:55:28;;;;;;;;;17.25;15.50;;;;;;;;3558317;39;112218;-73
2021/06/11 03:57:57;;;;;;;;;16.25;16.00;;;;;;;;3559937;39;113269;-72
2021/06/11 04:00:24;;;;;;;;;14.00;14.00;;;;;;;;3555933;39;112915;-73
2021/06/11 04:02:52;;;;;;;;;17.50;17.00;;;;;;;;3559776;39;113784;-72
2021/06/11 04:05:18;;;;;;;;;16.50;15.00;;;;;;;;3558514;39;113018;-72
2021/06/11 04:07:46;;;;;;;;;13.75;13.75;;;;;;;;3558848;39;113840;-72
2021/06/11 04:10:16;;;;;;;;;15.00;15.00;;;;;;;;3559093;39;111982;-72
2021/06/11 04:12:44;;;;;;;;;14.25;14.25;;;;;;;;3559110;39;113514;-72
2021/06/11 04:15:12;;;;;;;;;13.00;13.00;;;;;;;;3561577;39;114198;-73
2021/06/11 04:17:40;;;;;;;;;16.00;16.00;;;;;;;;3556916;39;112201;-73
2021/06/11 04:20:13;;;;;;;;;20.50;18.25;;;;;;;;3559026;39;114543;-73
2021/06/11 04:22:41;;;;;;;;;15.75;15.75;;;;;;;;3559003;39;113347;-73
2021/06/11 04:25:07;;;;;;;;;23.00;19.50;;;;;;;;3559280;39;113825;-73
2021/06/11 04:27:36;;;;;;;;;18.50;16.50;;;;;;;;3557962;39;113784;-73
2021/06/11 04:30:04;;;;;;;;;17.25;15.25;;;;;;;;3559698;39;112185;-73
2021/06/11 04:32:30;;;;;;;;;20.75;16.25;;;;;;;;3558424;39;113203;-72
2021/06/11 04:34:56;;;;;;;;;17.75;15.75;;;;;;;;3560344;39;113914;-71
2021/06/11 04:37:24;;;;;;;;;19.75;18.00;;;;;;;;3559594;39;113481;-72
2021/06/11 04:39:53;;;;;;;;;20.25;20.00;;;;;;;;3558051;39;113871;-72
2021/06/11 04:42:19;;;;;;;;;19.75;18.50;;;;;;;;3559393;39;112109;-73
2021/06/11 04:44:46;;;;;;;;;16.00;15.25;;;;;;;;3559011;39;113743;-73
2021/06/11 04:47:12;;;;;;;;;19.00;16.75;;;;;;;;3558482;39;113900;-72
2021/06/11 04:49:38;;;;;;;;;22.25;20.00;;;;;;;;3559391;39;112065;-73
2021/06/11 04:52:05;;;;;;;;;20.00;18.00;;;;;;;;3558366;39;113784;-72
2021/06/11 04:54:32;;;;;;;;;18.25;18.25;;;;;;;;3559119;39;113671;-72
2021/06/11 04:57:00;;;;;;;;;20.75;19.75;;;;;;;;3560954;39;111962;-71
2021/06/11 04:59:26;;;;;;;;;16.75;16.75;;;;;;;;3557428;39;114217;-73
2021/06/11 05:01:52;;;;;;;;;19.25;15.00;;;;;;;;3559521;39;111949;-72
2021/06/11 05:04:18;;;;;;;;;19.25;17.75;;;;;;;;3558449;39;113733;-72
2021/06/11 05:06:47;;;;;;;;;19.00;16.50;;;;;;;;3556481;39;112923;-73
2021/06/11 05:09:13;;;;;;;;;15.25;15.25;;;;;;;;3558819;39;112277;-73
2021/06/11 05:11:40;;;;;;;;;16.75;15.25;;;;;;;;3558646;39;113448;-73
2021/06/11 05:14:06;;;;;;;;;20.50;20.00;;;;;;;;3558380;39;114069;-73
2021/06/11 05:16:32;;;;;;;;;20.75;17.00;;;;;;;;3558113;39;111764;-73
2021/06/11 05:18:59;;;;;;;;;21.00;19.50;;;;;;;;3561948;39;113383;-73
2021/06/11 05:21:25;;;;;;;;;20.00;19.00;;;;;;;;3557821;39;111901;-72
2021/06/11 05:23:51;;;;;;;;;20.25;18.25;;;;;;;;3559385;39;113308;-72
2021/06/11 05:26:17;;;;;;;;;20.75;20.50;;;;;;;;3557906;39;113955;-73
2021/06/11 05:28:44;;;;;;;;;18.25;16.50;;;;;;;;3558788;39;112197;-73
2021/06/11 05:31:11;;;;;;;;;20.25;20.00;;;;;;;;3558994;39;113368;-72
2021/06/11 05:33:37;;;;;;;;;23.25;20.25;;;;;;;;3557740;39;113947;-72
2021/06/11 05:36:03;;;;;;;;;19.00;17.75;;;;;;;;3559330;39;111863;-72
2021/06/11 05:38:29;;;;;;;;;22.25;21.50;;;;;;;;3557631;39;113056;-73
2021/06/11 05:40:58;;;;;;;;;23.00;19.25;;;;;;;;3561624;39;113875;-73
2021/06/11 05:43:24;;;;;;;;;21.50;17.00;;;;;;;;3557830;39;113352;-75
2021/06/11 05:45:51;;;;;;;;;22.25;22.25;;;;;;;;3558865;39;114799;-73
2021/06/11 05:48:18;;;;;;;;;21.50;20.00;;;;;;;;3557925;39;111778;-72
2021/06/11 05:50:45;;;;;;;;;23.00;20.75;;;;;;;;3558803;39;113362;-73
2021/06/11 05:53:11;;;;;;;;;23.00;19.25;;;;;;;;3556170;39;112862;-73
2021/06/11 05:55:37;;;;;;;;;26.75;24.50;;;;;;;;3558240;39;112185;-71
2021/06/11 05:58:03;;;;;;;;;24.25;19.25;;;;;;;;3557480;39;112364;-75
2021/06/11 06:00:29;;;;;;;;;22.75;20.25;;;;;;;;3557133;39;115250;-73
2021/06/11 06:02:56;;;;;;;;;17.50;17.50;;;;;;;;3562363;39;111844;-76
2021/06/11 06:05:23;;;;;;;;;23.25;18.75;;;;;;;;3557419;39;115017;-77
2021/06/11 06:07:49;;;;;;;;;25.25;21.00;;;;;;;;3560106;39;112957;-75
2021/06/11 06:10:15;;;;;;;;;23.50;21.50;;;;;;;;3558266;39;113309;-78
2021/06/11 06:12:41;;;;;;;;;23.25;20.25;;;;;;;;3556227;39;114139;-74
2021/06/11 06:15:07;;;;;;;;;19.25;18.25;;;;;;;;3558881;39;112110;-74
2021/06/11 06:17:35;;;;;;;;;19.00;19.00;;;;;;;;3558047;39;113271;-78
2021/06/11 06:20:03;;;;;;;;;26.50;21.00;;;;;;;;3558785;39;114032;-78
2021/06/11 06:22:29;;;;;;;;;27.25;23.75;;;;;;;;3557707;39;111933;-79
2021/06/11 06:24:55;;;;;;;;;22.00;22.00;;;;;;;;3561696;39;113339;-79
2021/06/11 06:27:21;;;;;;;;;23.25;18.00;;;;;;;;3558515;39;111986;-75
2021/06/11 06:29:47;;;;;;;;;23.50;22.00;;;;;;;;3560291;39;113187;-79
2021/06/11 06:32:13;;;;;;;;;25.00;24.25;;;;;;;;3558939;39;113790;-76
2021/06/11 06:34:39;;;;;;;;;23.00;22.00;;;;;;;;3560005;39;113865;-77
2021/06/11 06:37:10;;;;;;;;;24.25;21.50;;;;;;;;3561905;39;114436;-78
2021/06/11 06:39:36;;;;;;;;;23.00;22.00;;;;;;;;3558575;39;114402;-82
2021/06/11 06:42:03;;;;;;;;;22.50;20.50;;;;;;;;3560492;39;112516;-83
2021/06/11 06:44:29;;;;;;;;;22.50;20.00;;;;;;;;3559249;39;114184;-80
2021/06/11 06:46:55;;;;;;;;;24.00;24.00;;;;;;;;3558178;39;112099;-81
2021/06/11 06:49:23;;;;;;;;;25.50;21.75;;;;;;;;3559793;39;113282;-78
2021/06/11 06:51:49;;;;;;;;;20.00;20.00;;;;;;;;3557486;39;113897;-82
2021/06/11 06:54:17;;;;;;;;;22.75;22.75;;;;;;;;3558923;39;111922;-70
2021/06/11 06:56:43;;;;;;;;;24.25;21.00;;;;;;;;3557882;39;113517;-74
2021/06/11 06:59:09;;;;;;;;;21.25;20.00;;;;;;;;3555196;39;113875;-72
2021/06/11 07:01:35;;;;;;;;;20.50;19.50;;;;;;;;3559065;39;112293;-72
2021/06/11 07:04:02;;;;;;;;;26.25;23.50;;;;;;;;3558124;39;113339;-71
2021/06/11 07:06:28;;;;;;;;;31.00;28.00;;;;;;;;3559781;39;113831;-73
2021/06/11 07:08:55;;;;;;;;;26.50;22.75;;;;;;;;3558489;39;113414;-73
2021/06/11 07:11:22;;;;;;;;;25.00;21.00;;;;;;;;3559048;39;114019;-76
2021/06/11 07:13:48;;;;;;;;;30.50;25.50;;;;;;;;3557464;39;112944;-75
2021/06/11 07:16:15;;;;;;;;;27.00;22.50;;;;;;;;3558918;39;115056;-73
2021/06/11 07:18:41;;;;;;;;;24.25;20.50;;;;;;;;3560319;39;114182;-72
2021/06/11 07:21:07;;;;;;;;;19.75;19.50;;;;;;;;3560703;39;111966;-73
2021/06/11 07:23:35;;;;;;;;;28.75;27.25;;;;;;;;3559971;39;113438;-73
2021/06/11 07:26:02;;;;;;;;;23.00;22.00;;;;;;;;3557474;39;113687;-72
2021/06/11 07:28:29;;;;;;;;;23.50;23.50;;;;;;;;3561068;39;111835;-72
2021/06/11 07:30:56;;;;;;;;;23.25;23.25;;;;;;;;3557696;39;113850;-72
2021/06/11 07:33:22;;;;;;;;;24.50;23.75;;;;;;;;3557996;39;112056;-72
2021/06/11 07:35:48;;;;;;;;;24.50;21.25;;;;;;;;3558899;39;113208;-73
2021/06/11 07:38:14;;;;;;;;;23.25;22.50;;;;;;;;3558179;39;113916;-72
2021/06/11 07:40:40;;;;;;;;;20.50;19.75;;;;;;;;3558647;39;111982;-73
2021/06/11 07:43:06;;;;;;;;;21.25;20.00;;;;;;;;3559876;39;113262;-73
2021/06/11 07:45:34;;;;;;;;;21.25;21.25;;;;;;;;3557450;39;113986;-73
2021/06/11 07:48:00;;;;;;;;;26.00;23.25;;;;;;;;3559675;39;111921;-74
2021/06/11 07:50:28;;;;;;;;;23.75;23.25;;;;;;;;3560158;39;113801;-71
2021/06/11 07:52:54;;;;;;;;;42.25;36.00;;;;;;;;3559496;39;112088;-72
2021/06/11 07:55:20;;;;;;;;;30.25;25.75;;;;;;;;3558216;39;113292;-73
2021/06/11 07:57:46;;;;;;;;;31.75;30.25;;;;;;;;3558425;39;113900;-71
2021/06/11 08:00:13;;;;;;;;;31.25;29.50;;;;;;;;3558064;39;111982;-71
2021/06/11 08:02:42;;;;;;;;;26.00;24.00;;;;;;;;3557515;39;113871;-70
2021/06/11 08:05:09;;;;;;;;;34.00;28.50;;;;;;;;3557799;39;114075;-71
2021/06/11 08:07:42;;;;;;;;;24.50;22.00;;;;;;;;3557583;39;112032;-71
2021/06/11 08:10:09;;;;;;;;;19.67;19.33;;;;;;;;3558612;39;112723;-78
2021/06/11 08:12:37;;;;;;;;;21.33;21.33;;;;;;;;3560151;39;114096;-76
2021/06/11 08:15:28;;;;;;;;;25.00;24.00;;;;;;;;3559137;39;114171;-79
2021/06/11 08:17:55;;;;;;;;;21.00;20.67;;;;;;;;3558890;39;113592;-73
2021/06/11 08:20:21;;;;;;;;;22.33;21.67;;;;;;;;3558306;39;111971;-75
2021/06/11 08:22:47;;;;;;;;;24.33;21.67;;;;;;;;3559103;39;113904;-77
2021/06/11 08:25:14;;;;;;;;;23.00;23.00;;;;;;;;3558002;39;113884;-77
2021/06/11 08:27:41;;;;;;;;;20.00;17.00;;;;;;;;3558850;39;112181;-75
2021/06/11 08:30:08;;;;;;;;;24.00;21.00;;;;;;;;3559701;39;113786;-80
2021/06/11 08:32:34;;;;;;;;;20.00;19.00;;;;;;;;3557898;39;113912;-78
2021/06/11 08:35:05;;;;;;;;;20.00;19.00;;;;;;;;3562047;39;111895;-84
2021/06/11 08:37:32;;;;;;;;;80.25;72.50;;;;;;;;3557304;39;114034;-77
2021/06/11 08:39:58;;;;;;;;;24.00;23.33;;;;;;;;3559801;39;112187;-80
2021/06/11 08:42:29;;;;;;;;;38.50;30.25;;;;;;;;3557923;39;111694;-81
2021/06/11 08:44:59;;;;;;;;;40.33;35.33;;;;;;;;3557402;39;113747;-76
2021/06/11 08:47:29;;;;;;;;;22.33;21.67;;;;;;;;3557600;39;111823;-75
2021/06/11 08:49:56;;;;;;;;;183.25;166.00;;;;;;;;3559625;39;115603;-78
2021/06/11 08:52:24;;;;;;;;;19.67;19.00;;;;;;;;3558095;39;114289;-86
2021/06/11 08:54:50;;;;;;;;;47.50;40.00;;;;;;;;3562805;39;111968;-80
2021/06/11 08:57:17;;;;;;;;;72.25;62.50;;;;;;;;3558606;39;113907;-78
2021/06/11 08:59:45;;;;;;;;;57.50;46.75;;;;;;;;3559064;39;112241;-72
2021/06/11 09:02:11;;;;;;;;;40.00;34.67;;;;;;;;3558981;39;113660;-78
2021/06/11 09:04:39;;;;;;;;;34.67;30.00;;;;;;;;3558121;39;113965;-76
2021/06/11 09:07:18;;;;;;;;;54.50;42.00;;;;;;;;3559070;39;112930;-75
2021/06/11 09:09:49;;;;;;;;;39.33;34.33;;;;;;;;3557950;39;113801;-76
2021/06/11 09:12:26;;;;;;;;;48.00;41.25;;;;;;;;3556817;39;114088;-75
2021/06/11 09:14:56;;;;;;;;;22.67;22.67;;;;;;;;3556122;39;112378;-76
2021/06/11 09:17:33;;;;;;;;;44.00;36.67;;;;;;;;3559829;39;113392;-76
2021/06/11 09:20:03;;;;;;;;;35.67;30.00;;;;;;;;3556251;39;112364;-75
2021/06/11 09:22:36;;;;;;;;;27.33;27.00;;;;;;;;3556078;39;113418;-75
2021/06/11 09:25:17;;;;;;;;;23.33;22.33;;;;;;;;3555684;39;114401;-76
2021/06/11 09:27:49;;;;;;;;;44.50;37.50;;;;;;;;3556539;39;112109;-76
2021/06/11 09:30:15;;;;;;;;;12.33;12.33;;;;;;;;3559653;39;113262;-76
2021/06/11 09:32:42;;;;;;;;;13.33;13.33;;;;;;;;3558085;39;113701;-76
2021/06/11 09:35:08;;;;;;;;;10.00;10.00;;;;;;;;3558447;39;111997;-76
2021/06/11 09:37:39;;;;;;;;;15.33;12.33;;;;;;;;3557979;39;113259;-76
2021/06/11 09:40:06;;;;;;;;;20.33;20.00;;;;;;;;3561174;39;113906;-75
2021/06/11 09:42:34;;;;;;;;;29.33;27.00;;;;;;;;3557646;39;113385;-76
2021/06/11 09:45:04;;;;;;;;;9.33;9.33;;;;;;;;3558842;39;113817;-76
2021/06/11 09:47:31;;;;;;;;;12.33;11.00;;;;;;;;3557512;39;112406;-75
2021/06/11 09:50:01;;;;;;;;;8.67;7.00;;;;;;;;3559504;39;113228;-76
2021/06/11 09:52:33;;;;;;;;;10.67;10.67;;;;;;;;3557246;39;113880;-76
2021/06/11 09:55:03;;;;;;;;;13.67;13.00;;;;;;;;3557529;39;111982;-76
2021/06/11 09:57:33;;;;;;;;;4.33;4.33;;;;;;;;3557618;39;113377;-76
2021/06/11 09:59:59;;;;;;;;;6.00;6.00;;;;;;;;3557117;39;114640;-77
2021/06/11 10:02:31;;;;;;;;;14.33;14.33;;;;;;;;3562168;39;112395;-75
2021/06/11 10:04:57;;;;;;;;;16.33;16.33;;;;;;;;3558413;39;114158;-75
2021/06/11 10:07:24;;;;;;;;;16.33;13.67;;;;;;;;3557865;39;113267;-76
2021/06/11 10:09:50;;;;;;;;;11.67;10.00;;;;;;;;3558905;39;113771;-76
2021/06/11 10:12:16;;;;;;;;;9.00;8.67;;;;;;;;3557788;39;113791;-76
2021/06/11 10:14:43;;;;;;;;;9.67;9.67;;;;;;;;3557938;39;112214;-74
2021/06/11 10:17:09;;;;;;;;;5.33;4.67;;;;;;;;3558516;39;113367;-78
2021/06/11 10:19:38;;;;;;;;;9.00;9.00;;;;;;;;3557463;39;113810;-84
2021/06/11 10:22:05;;;;;;;;;13.00;13.00;;;;;;;;3558918;39;112138;-76
2021/06/11 10:24:32;;;;;;;;;7.00;7.00;;;;;;;;3559718;39;113215;-76
2021/06/11 10:26:58;;;;;;;;;8.00;8.00;;;;;;;;3558901;39;111949;-75
2021/06/11 10:29:24;;;;;;;;;8.67;7.33;;;;;;;;3557984;39;113286;-76
2021/06/11 10:31:52;;;;;;;;;9.33;8.00;;;;;;;;3558215;39;113910;-81
2021/06/11 10:34:18;;;;;;;;;7.00;7.00;;;;;;;;3558549;39;111890;-78
2021/06/11 10:36:46;;;;;;;;;9.33;9.33;;;;;;;;3558240;39;113193;-78
2021/06/11 10:39:25;;;;;;;;;10.33;10.33;;;;;;;;3557378;39;113988;-78
2021/06/11 10:42:11;;;;;;;;;8.00;7.00;;;;;;;;3558707;39;112171;-77
2021/06/11 10:44:41;;;;;;;;;8.00;8.00;;;;;;;;3557584;39;113400;-77
2021/06/11 10:47:26;;;;;;;;;8.00;8.00;;;;;;;;3560312;39;111987;-75
2021/06/11 10:50:12;;;;;;;;;8.67;7.67;;;;;;;;3558548;39;113985;-80
2021/06/11 10:52:46;;;;;;;;;9.33;9.33;;;;;;;;3557081;39;114990;-83
2021/06/11 10:55:46;;;;;;;;;9.00;9.00;;;;;;;;3557493;39;111882;-76
2021/06/11 10:58:27;;;;;;;;;9.67;9.00;;;;;;;;3557759;39;113787;-76
2021/06/11 11:00:53;;;;;;;;;8.33;8.00;;;;;;;;3556473;39;114046;-81
2021/06/11 11:03:26;;;;;;;;;10.67;10.00;;;;;;;;3558527;39;111819;-79
2021/06/11 11:05:53;;;;;;;;;7.00;7.00;;;;;;;;3558180;39;113300;-77
2021/06/11 11:08:21;;;;;;;;;8.33;7.33;;;;;;;;3559264;39;114008;-75
2021/06/11 11:10:48;;;;;;;;;6.33;6.33;;;;;;;;3555725;39;114164;-79
2021/06/11 11:13:14;;;;;;;;;7.00;7.00;;;;;;;;3558930;39;114260;-79
2021/06/11 11:15:42;;;;;;;;;6.67;6.67;;;;;;;;3559487;39;111834;-79
2021/06/11 11:18:09;;;;;;;;;8.00;8.00;;;;;;;;3560165;39;113816;-77
2021/06/11 11:20:37;;;;;;;;;7.67;7.67;;;;;;;;3559180;39;113942;-77
2021/06/11 11:23:04;;;;;;;;;5.00;5.00;;;;;;;;3559922;39;111913;-79
2021/06/11 11:25:33;;;;;;;;;7.00;7.00;;;;;;;;3560127;39;114490;-77
2021/06/11 11:28:00;;;;;;;;;9.00;9.00;;;;;;;;3558405;39;113765;-80
2021/06/11 11:30:26;;;;;;;;;10.00;9.00;;;;;;;;3562239;39;112867;-78
2021/06/11 11:32:53;;;;;;;;;9.00;6.00;;;;;;;;3561639;39;116733;-76
2021/06/11 11:35:20;;;;;;;;;9.00;7.67;;;;;;;;3557622;39;112338;-76
2021/06/11 11:37:48;;;;;;;;;9.67;8.00;;;;;;;;3559157;39;113555;-77
2021/06/11 11:40:14;;;;;;;;;9.00;9.00;;;;;;;;3557500;39;116107;-74
2021/06/11 11:42:42;;;;;;;;;7.00;7.00;;;;;;;;3558223;39;111843;-76
2021/06/11 11:45:09;;;;;;;;;8.00;8.00;;;;;;;;3558851;39;113486;-74
2021/06/11 11:47:35;;;;;;;;;8.67;8.67;;;;;;;;3558797;39;115661;-75
2021/06/11 11:50:01;;;;;;;;;10.00;10.00;;;;;;;;3559008;39;112173;-76
2021/06/11 11:52:27;;;;;;;;;9.00;9.00;;;;;;;;3560500;39;114917;-78
2021/06/11 11:54:53;;;;;;;;;8.00;8.00;;;;;;;;3558408;39;112020;-77
2021/06/11 11:57:19;;;;;;;;;9.67;8.67;;;;;;;;3558525;39;113635;-78
2021/06/11 11:59:47;;;;;;;;;6.00;6.00;;;;;;;;3557345;39;113996;-77
2021/06/11 12:02:14;;;;;;;;;8.00;8.00;;;;;;;;3557557;39;111989;-78
2021/06/11 12:04:40;;;;;;;;;9.67;8.67;;;;;;;;3560200;39;114201;-76
2021/06/11 12:07:06;;;;;;;;;7.00;7.00;;;;;;;;3557409;39;113268;-77
2021/06/11 12:09:32;;;;;;;;;7.00;7.00;;;;;;;;3557776;39;111925;-76
2021/06/11 12:11:58;;;;;;;;;8.33;8.33;;;;;;;;3558274;39;113804;-76
2021/06/11 12:14:24;;;;;;;;;7.00;7.00;;;;;;;;3560518;39;114088;-76
2021/06/11 12:16:52;;;;;;;;;6.00;6.00;;;;;;;;3558702;39;113229;-76
2021/06/11 12:19:18;;;;;;;;;9.00;9.00;;;;;;;;3558520;39;113924;-76
2021/06/11 12:21:44;;;;;;;;;8.00;8.00;;;;;;;;3558673;39;111972;-75
2021/06/11 12:24:11;;;;;;;;;8.00;8.00;;;;;;;;3558750;39;113548;-76
2021/06/11 12:26:37;;;;;;;;;7.00;7.00;;;;;;;;3558889;39;114497;-76
2021/06/11 12:29:06;;;;;;;;;7.00;7.00;;;;;;;;3558301;39;111794;-76
2021/06/11 12:31:34;;;;;;;;;7.33;7.33;;;;;;;;3558634;39;113379;-76
2021/06/11 12:34:01;;;;;;;;;7.67;7.00;;;;;;;;3557327;39;113978;-78
2021/06/11 12:36:27;;;;;;;;;8.00;8.00;;;;;;;;3560917;39;111880;-84
2021/06/11 12:38:53;;;;;;;;;6.33;5.67;;;;;;;;3558526;39;113800;-80
2021/06/11 12:41:22;;;;;;;;;6.00;6.00;;;;;;;;3559046;39;111913;-80
2021/06/11 12:46:33;;;;;;;;;8.67;7.33;;;;;;;;3557345;39;112269;-82
2021/06/11 12:48:59;;;;;;;;;7.33;7.33;;;;;;;;3559898;39;112365;-84
2021/06/11 12:51:27;;;;;;;;;8.67;7.67;;;;;;;;3558080;39;113671;-79
2021/06/11 12:53:53;;;;;;;;;9.00;8.00;;;;;;;;3559113;39;113469;-75
2021/06/11 12:56:19;;;;;;;;;8.33;8.33;;;;;;;;3561062;39;111925;-77
2021/06/11 12:58:48;;;;;;;;;8.00;6.67;;;;;;;;3558701;39;113876;-77
2021/06/11 13:01:17;;;;;;;;;10.00;10.00;;;;;;;;3558597;39;112509;-80
2021/06/11 13:03:43;;;;;;;;;7.33;7.00;;;;;;;;3558571;39;114007;-79
2021/06/11 13:06:13;;;;;;;;;9.00;8.00;;;;;;;;3558748;39;114206;-88
2021/06/11 13:08:41;;;;;;;;;8.67;7.67;;;;;;;;3558810;39;112308;-81
2021/06/11 13:11:07;;;;;;;;;7.33;7.33;;;;;;;;3559413;39;113389;-79
2021/06/11 13:13:33;;;;;;;;;8.33;8.33;;;;;;;;3558229;39;113856;-79
2021/06/11 13:15:59;;;;;;;;;8.00;8.00;;;;;;;;3559581;39;111783;-76
2021/06/11 13:18:25;;;;;;;;;8.33;7.67;;;;;;;;3560076;39;113230;-75
2021/06/11 13:20:51;;;;;;;;;7.67;7.67;;;;;;;;3559512;39;111937;-76
2021/06/11 13:23:18;;;;;;;;;8.00;8.00;;;;;;;;3558241;39;113394;-75
2021/06/11 13:25:45;;;;;;;;;11.00;11.00;;;;;;;;3554859;39;112876;-76
2021/06/11 13:28:12;;;;;;;;;8.67;8.67;;;;;;;;3558797;39;112962;-77
2021/06/11 13:30:39;;;;;;;;;8.00;7.33;;;;;;;;3559181;39;113257;-76
2021/06/11 13:33:05;;;;;;;;;10.00;9.00;;;;;;;;3559605;39;113984;-80
2021/06/11 13:35:31;;;;;;;;;9.00;8.33;;;;;;;;3556738;39;111850;-79
2021/06/11 13:37:58;;;;;;;;;13.33;13.00;;;;;;;;3557072;39;113433;-81
2021/06/11 13:40:25;;;;;;;;;12.33;11.33;;;;;;;;3561213;39;113925;-79
2021/06/11 13:42:53;;;;;;;;;8.00;7.67;;;;;;;;3558910;39;113345;-77
2021/06/11 13:45:19;;;;;;;;;8.67;8.67;;;;;;;;3557280;39;113352;-86
2021/06/11 13:47:46;;;;;;;;;7.33;7.00;;;;;;;;3558067;39;111928;-84
2021/06/11 13:50:12;;;;;;;;;7.33;7.33;;;;;;;;3558796;39;113565;-81
2021/06/11 13:52:38;;;;;;;;;7.00;7.00;;;;;;;;3558428;39;113846;-76
2021/06/11 13:55:05;;;;;;;;;7.00;7.00;;;;;;;;3557893;39;111803;-79
2021/06/11 13:57:31;;;;;;;;;7.67;7.67;;;;;;;;3559509;39;113737;-78
2021/06/11 13:59:59;;;;;;;;;9.00;9.00;;;;;;;;3557280;39;113835;-79
2021/06/11 14:02:25;;;;;;;;;9.00;8.00;;;;;;;;3561012;39;113056;-81
2021/06/11 14:04:51;;;;;;;;;7.00;7.00;;;;;;;;3558720;39;113795;-77
2021/06/11 14:07:20;;;;;;;;;10.00;9.67;;;;;;;;3557428;39;111996;-78
2021/06/11 14:09:46;;;;;;;;;9.00;9.00;;;;;;;;3557873;39;114071;-78
2021/06/11 14:12:12;;;;;;;;;10.00;9.00;;;;;;;;3557331;39;113797;-77
2021/06/11 14:14:39;;;;;;;;;8.67;8.00;;;;;;;;3557442;39;111791;-81
2021/06/11 14:17:06;;;;;;;;;8.00;8.00;;;;;;;;3559005;39;113194;-79